Time;durP1;ratioP1;P1;durP2;ratioP2;P2;SDS_P1;SDS_P2;PMS_P1;PMS_P2;Temp;Humidity;BMP_temperature;BMP_pressure;BME280_temperature;BME280_humidity;BME280_pressure;Samples;Min_cycle;Max_cycle;Signal;HPM_P1;HPM_P2
2021/05/31 01:04:07;;;;;;;6.23;3.10;;;11.80;99.90;;;;;;5377305;23;20518;-42
2021/05/31 01:06:36;;;;;;;4.90;2.80;;;11.80;99.90;;;;;;4996004;28;20478;-43
2021/05/31 01:09:08;;;;;;;4.77;2.87;;;11.80;99.90;;;;;;4975300;28;20490;-45
2021/05/31 01:11:47;;;;;;;3.73;3.43;;;11.80;99.90;;;;;;4975505;28;20455;-42
2021/05/31 01:14:22;;;;;;;4.13;2.93;;;11.80;99.90;;;;;;4975561;28;20777;-43
2021/05/31 01:16:53;;;;;;;7.87;3.07;;;11.70;99.90;;;;;;4975313;28;20446;-42
2021/05/31 01:19:36;;;;;;;3.80;2.33;;;11.70;99.90;;;;;;4975461;28;20442;-43
2021/05/31 01:22:05;;;;;;;5.33;2.60;;;11.60;99.90;;;;;;4975274;28;20450;-44
2021/05/31 01:24:51;;;;;;;4.10;3.30;;;11.60;99.90;;;;;;4975131;28;20517;-43
2021/05/31 01:27:28;;;;;;;5.53;3.40;;;11.60;99.90;;;;;;4974991;28;20462;-44
2021/05/31 01:29:59;;;;;;;5.40;3.13;;;11.50;99.90;;;;;;4961540;28;20479;-42
2021/05/31 01:32:29;;;;;;;3.30;2.90;;;11.50;99.90;;;;;;4955785;29;20918;-42
2021/05/31 01:34:57;;;;;;;4.93;3.10;;;11.50;99.90;;;;;;4956343;29;20740;-49
2021/05/31 01:37:25;;;;;;;3.60;3.10;;;11.40;99.90;;;;;;4956106;29;20448;-42
2021/05/31 01:39:55;;;;;;;4.43;3.17;;;11.40;99.90;;;;;;4955817;29;20471;-45
2021/05/31 01:42:24;;;;;;;5.57;3.23;;;11.40;99.90;;;;;;4955878;29;20447;-42
2021/05/31 01:44:51;;;;;;;8.60;5.37;;;11.40;99.90;;;;;;4955758;29;20443;-42
2021/05/31 03:45:11;;;;;;;4.17;3.03;;;10.50;99.90;;;;;;5424212;23;20541;-42
2021/05/31 03:47:38;;;;;;;5.90;2.80;;;10.50;99.90;;;;;;4977261;28;20513;-45
2021/05/31 03:50:06;;;;;;;5.50;3.60;;;10.50;99.90;;;;;;4976992;28;20462;-44
2021/05/31 03:52:32;;;;;;;7.03;3.33;;;10.60;99.90;;;;;;4976745;28;20860;-42
2021/05/31 03:54:58;;;;;;;5.00;3.67;;;10.60;99.90;;;;;;4976093;28;20450;-42
2021/05/31 04:28:35;;;;;;;4.70;3.70;;;10.80;99.90;;;;;;6055858;23;21644;-41
2021/05/31 04:31:01;;;;;;;9.17;4.47;;;10.90;99.90;;;;;;4987239;28;20760;-42
2021/05/31 04:33:27;;;;;;;11.73;4.33;;;10.90;99.90;;;;;;4991738;28;20443;-46
2021/05/31 04:35:53;;;;;;;7.03;3.90;;;10.90;99.90;;;;;;4988148;28;20435;-42
2021/05/31 04:38:20;;;;;;;10.57;4.60;;;11.00;99.90;;;;;;4993018;28;20474;-44
2021/05/31 04:40:46;;;;;;;9.13;3.63;;;11.10;99.90;;;;;;4989479;28;20434;-43
2021/05/31 04:43:12;;;;;;;9.07;5.00;;;11.10;99.90;;;;;;4990119;28;20454;-43
2021/05/31 04:45:40;;;;;;;7.57;4.30;;;11.20;99.90;;;;;;4986975;28;20487;-42
2021/05/31 04:48:06;;;;;;;5.60;3.90;;;11.30;99.90;;;;;;4988409;28;20470;-44
2021/05/31 04:50:32;;;;;;;6.80;3.50;;;11.30;99.90;;;;;;4994168;28;20454;-44
2021/05/31 04:52:58;;;;;;;7.27;3.63;;;11.40;99.90;;;;;;4988452;28;20918;-44
2021/05/31 04:55:24;;;;;;;10.63;3.67;;;11.50;99.90;;;;;;4986595;28;20442;-42
2021/05/31 04:57:51;;;;;;;11.13;4.37;;;11.50;99.90;;;;;;4986435;28;20453;-43
2021/05/31 05:00:17;;;;;;;6.97;3.60;;;11.60;99.90;;;;;;4992437;28;20456;-43
2021/05/31 05:02:45;;;;;;;7.60;5.07;;;11.60;99.90;;;;;;4996257;28;20501;-43
2021/05/31 05:05:12;;;;;;;5.80;3.43;;;11.70;99.90;;;;;;4983083;28;20466;-43
2021/05/31 05:07:45;;;;;;;8.33;5.73;;;11.80;99.90;;;;;;4988323;28;20462;-44
2021/05/31 05:10:12;;;;;;;6.57;4.53;;;11.80;99.90;;;;;;4986859;28;20835;-43
2021/05/31 05:12:38;;;;;;;7.67;4.80;;;11.90;99.90;;;;;;4995690;28;20517;-43
2021/05/31 05:15:06;;;;;;;6.40;3.53;;;11.90;99.90;;;;;;4994892;28;20469;-43
2021/05/31 05:17:32;;;;;;;13.87;4.60;;;11.90;99.90;;;;;;4994311;28;20450;-43
2021/05/31 05:20:00;;;;;;;6.23;4.30;;;12.00;99.90;;;;;;4984354;28;20447;-44
2021/05/31 05:22:26;;;;;;;7.07;4.77;;;12.00;99.90;;;;;;4986905;28;20464;-45
2021/05/31 05:24:52;;;;;;;7.43;4.97;;;12.10;99.90;;;;;;4986605;28;20496;-44
2021/05/31 05:27:18;;;;;;;7.00;5.00;;;12.10;99.90;;;;;;4987924;28;20489;-44
2021/05/31 05:29:44;;;;;;;10.47;5.40;;;12.20;99.90;;;;;;4987496;28;20478;-47
2021/05/31 05:32:12;;;;;;;7.87;4.00;;;12.20;99.90;;;;;;4986964;28;20455;-46
2021/05/31 05:34:38;;;;;;;6.63;4.23;;;12.30;99.90;;;;;;4986851;28;20532;-46
2021/05/31 05:37:09;;;;;;;14.23;4.70;;;12.30;99.90;;;;;;4985736;28;20493;-44
2021/05/31 05:39:50;;;;;;;6.13;4.50;;;12.40;99.90;;;;;;4987463;28;20965;-47
2021/05/31 05:42:33;;;;;;;5.23;3.43;;;12.50;99.90;;;;;;4986681;28;20454;-43
2021/05/31 05:45:20;;;;;;;12.80;5.90;;;12.50;99.90;;;;;;4989134;28;20437;-44
2021/05/31 05:47:46;;;;;;;7.60;4.40;;;12.60;99.90;;;;;;4986313;28;20448;-44
2021/05/31 05:50:15;;;;;;;9.10;4.30;;;12.60;99.90;;;;;;4990286;28;20936;-43
2021/05/31 05:52:42;;;;;;;6.23;4.80;;;12.70;99.90;;;;;;4990827;28;20835;-47
2021/05/31 05:55:10;;;;;;;7.27;4.20;;;12.70;99.90;;;;;;4985237;28;20458;-42
2021/05/31 05:57:38;;;;;;;11.10;4.87;;;12.70;99.90;;;;;;4987524;28;20513;-44
2021/05/31 06:00:07;;;;;;;7.30;4.13;;;12.80;99.90;;;;;;4979717;28;20462;-43
2021/05/31 06:02:33;;;;;;;5.20;3.80;;;12.80;99.90;;;;;;4981933;28;20446;-42
2021/05/31 06:05:00;;;;;;;11.40;4.17;;;13.00;99.90;;;;;;4984185;28;20461;-47
2021/05/31 06:07:26;;;;;;;6.37;4.67;;;13.10;99.90;;;;;;4986391;28;20536;-44
2021/05/31 06:09:54;;;;;;;7.30;4.10;;;13.20;99.90;;;;;;4982456;28;20451;-43
2021/05/31 06:12:20;;;;;;;7.43;3.60;;;13.30;99.90;;;;;;4973053;28;20476;-43
2021/05/31 06:14:46;;;;;;;6.10;4.80;;;13.40;99.90;;;;;;4973594;28;20459;-44
2021/05/31 06:17:13;;;;;;;11.20;4.00;;;13.40;99.90;;;;;;4976430;28;20457;-43
2021/05/31 06:19:39;;;;;;;12.93;5.20;;;13.50;99.90;;;;;;4979107;28;20814;-46
2021/05/31 06:22:05;;;;;;;9.67;4.97;;;13.40;99.90;;;;;;4979354;28;20945;-42
2021/05/31 06:24:32;;;;;;;6.77;4.83;;;13.50;99.90;;;;;;4982109;28;20501;-42
2021/05/31 06:26:59;;;;;;;11.40;4.30;;;13.60;99.90;;;;;;4983167;28;20569;-43
2021/05/31 06:29:26;;;;;;;7.33;4.17;;;13.70;99.90;;;;;;4990323;28;20466;-43
2021/05/31 06:31:53;;;;;;;6.97;4.50;;;13.80;99.90;;;;;;4990426;28;20460;-44
2021/05/31 06:34:19;;;;;;;6.50;3.60;;;13.90;99.90;;;;;;4983932;28;20789;-45
2021/05/31 06:36:48;;;;;;;5.37;3.83;;;14.00;99.90;;;;;;4987390;28;20443;-46
2021/05/31 06:39:16;;;;;;;7.43;4.27;;;14.00;99.90;;;;;;4995882;28;20446;-44
2021/05/31 06:41:42;;;;;;;10.37;4.43;;;14.10;99.90;;;;;;4997837;28;20457;-47
2021/05/31 06:44:09;;;;;;;4.80;4.10;;;14.20;99.90;;;;;;4986347;28;20498;-45
2021/05/31 06:46:35;;;;;;;6.00;4.07;;;14.30;99.90;;;;;;4973495;28;20491;-43
2021/05/31 06:49:02;;;;;;;4.67;4.17;;;14.40;99.90;;;;;;4988146;28;20929;-47
2021/05/31 06:51:28;;;;;;;8.20;4.00;;;14.40;99.90;;;;;;4987803;28;20933;-52
2021/05/31 06:53:54;;;;;;;7.97;4.33;;;14.50;99.90;;;;;;4989212;28;20442;-52
2021/05/31 06:56:23;;;;;;;6.10;4.63;;;14.60;99.90;;;;;;4986517;28;20932;-52
2021/05/31 06:58:49;;;;;;;22.93;5.00;;;14.70;99.90;;;;;;4992742;28;20533;-48
2021/05/31 07:01:19;;;;;;;8.23;4.90;;;14.80;99.90;;;;;;4991398;28;20777;-53
2021/05/31 07:03:45;;;;;;;9.00;4.93;;;15.00;99.90;;;;;;4986228;28;20579;-53
2021/05/31 07:06:12;;;;;;;9.60;4.30;;;15.10;99.90;;;;;;4989328;28;20573;-54
2021/05/31 07:08:38;;;;;;;6.17;4.07;;;15.30;99.90;;;;;;4989473;28;20446;-50
2021/05/31 07:11:09;;;;;;;9.00;4.30;;;15.50;99.90;;;;;;4992871;28;20465;-48
2021/05/31 07:13:35;;;;;;;9.90;4.70;;;15.80;99.90;;;;;;4985182;28;20439;-52
2021/05/31 07:16:02;;;;;;;8.67;4.93;;;16.10;99.90;;;;;;4985985;28;20446;-48
2021/05/31 07:18:29;;;;;;;10.10;5.30;;;17.10;99.90;;;;;;4981164;28;20462;-51
2021/05/31 07:21:01;;;;;;;5.20;4.23;;;18.90;99.90;;;;;;4980543;28;20447;-51
2021/05/31 07:23:28;;;;;;;8.17;4.77;;;21.20;98.20;;;;;;4981596;28;20468;-48
2021/05/31 07:25:54;;;;;;;5.33;4.20;;;23.40;89.20;;;;;;4977285;28;20500;-49
2021/05/31 07:28:20;;;;;;;6.37;4.40;;;25.60;72.60;;;;;;4982237;28;20442;-52
2021/05/31 07:30:46;;;;;;;13.50;5.27;;;27.30;59.00;;;;;;4985212;28;20981;-50
2021/05/31 07:33:14;;;;;;;9.77;4.63;;;28.40;52.70;;;;;;4989658;28;20497;-50
2021/05/31 07:35:42;;;;;;;4.63;4.17;;;29.70;49.00;;;;;;4983769;28;20921;-47
2021/05/31 07:38:08;;;;;;;6.87;4.87;;;31.00;44.90;;;;;;4984471;28;20457;-53
2021/05/31 07:40:35;;;;;;;7.67;4.63;;;32.00;42.20;;;;;;4984267;28;20451;-54
2021/05/31 07:43:01;;;;;;;6.40;5.40;;;32.80;39.90;;;;;;4984245;28;20443;-52
2021/05/31 07:45:27;;;;;;;5.63;5.10;;;33.20;37.60;;;;;;4982880;28;20455;-51
2021/05/31 07:47:53;;;;;;;5.50;4.40;;;33.10;36.60;;;;;;4983529;28;20537;-54
2021/05/31 07:50:21;;;;;;;4.93;4.40;;;33.00;36.80;;;;;;4985112;28;20949;-54
2021/05/31 07:52:49;;;;;;;6.83;4.73;;;32.70;36.90;;;;;;4983248;28;20453;-48
2021/05/31 07:55:17;;;;;;;6.53;5.00;;;32.80;36.90;;;;;;4984010;28;20989;-49
2021/05/31 07:57:45;;;;;;;7.47;5.73;;;32.90;36.30;;;;;;4980187;28;20451;-53
2021/05/31 08:00:13;;;;;;;5.20;4.40;;;33.20;36.80;;;;;;4989013;28;20446;-50
2021/05/31 08:02:43;;;;;;;5.17;4.43;;;33.10;35.70;;;;;;4991417;28;20446;-51
2021/05/31 08:05:10;;;;;;;7.43;4.40;;;33.20;35.50;;;;;;4981807;28;20446;-49
2021/05/31 08:07:36;;;;;;;5.10;4.60;;;33.30;35.10;;;;;;4966292;28;20932;-48
2021/05/31 08:10:05;;;;;;;5.60;5.10;;;33.20;35.40;;;;;;4976252;28;20461;-49
2021/05/31 08:12:31;;;;;;;5.40;4.90;;;32.90;35.00;;;;;;4982623;28;20470;-49
2021/05/31 08:14:58;;;;;;;5.20;4.67;;;33.20;35.00;;;;;;4983970;28;20522;-50
2021/05/31 08:17:25;;;;;;;6.10;5.07;;;33.20;34.70;;;;;;4986875;28;20890;-50
2021/05/31 08:19:52;;;;;;;5.87;4.83;;;33.20;34.60;;;;;;4981464;28;20947;-51
2021/05/31 08:22:18;;;;;;;5.30;4.73;;;33.30;34.80;;;;;;4979455;28;20451;-57
2021/05/31 08:24:46;;;;;;;10.13;4.90;;;33.40;34.40;;;;;;4985017;28;20469;-47
2021/05/31 08:27:14;;;;;;;8.77;4.80;;;33.10;34.90;;;;;;4980586;28;20561;-51
2021/05/31 08:29:41;;;;;;;5.20;3.97;;;33.20;34.80;;;;;;4985168;28;21179;-50
2021/05/31 08:32:07;;;;;;;4.80;4.30;;;33.10;34.40;;;;;;4979397;28;20451;-54
2021/05/31 08:34:34;;;;;;;4.93;4.33;;;33.10;34.60;;;;;;4988854;28;20485;-50
2021/05/31 08:37:00;;;;;;;6.73;4.80;;;33.40;34.40;;;;;;4987117;28;20489;-49
2021/05/31 08:39:27;;;;;;;5.50;4.80;;;33.50;34.30;;;;;;4980165;28;20453;-54
2021/05/31 08:41:53;;;;;;;6.20;4.47;;;33.60;34.00;;;;;;4984045;28;20504;-51
2021/05/31 08:44:21;;;;;;;9.50;4.87;;;33.70;34.00;;;;;;4990839;28;20535;-51
2021/05/31 08:46:47;;;;;;;7.17;5.17;;;33.80;33.70;;;;;;4987273;28;21055;-49
2021/05/31 08:49:14;;;;;;;6.43;5.83;;;33.90;33.60;;;;;;4988052;28;20446;-53
2021/05/31 08:51:40;;;;;;;9.10;4.80;;;34.00;33.10;;;;;;4988053;28;20453;-50
2021/05/31 08:54:07;;;;;;;4.80;4.30;;;34.10;33.70;;;;;;4992079;28;20455;-51
2021/05/31 08:56:33;;;;;;;6.23;3.97;;;34.00;32.90;;;;;;4986225;28;20457;-51
2021/05/31 08:59:00;;;;;;;5.70;4.53;;;33.90;32.90;;;;;;4993146;28;20450;-52
2021/05/31 09:01:28;;;;;;;6.97;4.37;;;33.90;32.40;;;;;;4982590;28;20447;-47
2021/05/31 09:03:55;;;;;;;4.30;3.90;;;33.90;31.40;;;;;;4979077;28;20514;-49
2021/05/31 09:06:22;;;;;;;4.30;3.23;;;33.90;30.90;;;;;;4981239;28;20568;-51
2021/05/31 09:08:53;;;;;;;6.17;4.20;;;33.70;31.80;;;;;;4985418;28;20467;-52
2021/05/31 09:11:21;;;;;;;5.83;3.70;;;33.60;31.60;;;;;;4982482;28;20458;-51
2021/05/31 09:13:47;;;;;;;5.57;4.07;;;33.60;31.60;;;;;;4983199;28;20469;-50
2021/05/31 09:16:16;;;;;;;4.10;3.70;;;33.40;31.40;;;;;;4987204;28;20797;-49
2021/05/31 09:18:48;;;;;;;6.97;4.83;;;33.20;31.60;;;;;;4977197;28;20455;-48
2021/05/31 09:21:17;;;;;;;8.00;4.27;;;33.10;32.00;;;;;;4988676;28;20481;-51
2021/05/31 09:23:44;;;;;;;6.10;4.00;;;33.40;32.30;;;;;;4979250;28;20944;-48
2021/05/31 09:26:10;;;;;;;6.40;3.90;;;33.50;32.10;;;;;;4985915;28;20881;-47
2021/05/31 09:28:36;;;;;;;8.10;3.77;;;33.60;31.20;;;;;;4978769;28;20446;-51
2021/05/31 09:31:16;;;;;;;4.07;3.57;;;33.40;31.80;;;;;;4988757;28;20901;-46
2021/05/31 09:33:43;;;;;;;3.80;3.40;;;33.40;31.00;;;;;;4978149;28;20443;-49
2021/05/31 09:36:11;;;;;;;6.43;3.40;;;33.40;30.90;;;;;;4983966;28;20834;-52
2021/05/31 09:38:48;;;;;;;3.67;3.37;;;33.60;30.40;;;;;;4981500;28;20441;-51
2021/05/31 09:41:22;;;;;;;8.60;3.63;;;33.70;30.00;;;;;;4979641;28;20788;-48
2021/05/31 09:43:55;;;;;;;8.03;4.83;;;33.80;30.50;;;;;;4975920;28;20462;-49
2021/05/31 09:46:21;;;;;;;4.57;3.50;;;33.80;30.50;;;;;;4979005;28;20512;-47
2021/05/31 09:48:47;;;;;;;6.90;3.53;;;33.60;30.40;;;;;;4975598;28;20465;-46
2021/05/31 09:51:15;;;;;;;4.37;3.97;;;33.50;30.70;;;;;;4977549;28;20463;-46
2021/05/31 09:53:41;;;;;;;4.60;3.37;;;33.60;30.20;;;;;;4982764;28;20450;-47
2021/05/31 09:56:15;;;;;;;4.43;3.60;;;33.40;30.00;;;;;;4984307;28;20535;-51
2021/05/31 09:58:55;;;;;;;3.90;3.30;;;33.20;30.50;;;;;;4977932;28;20479;-55
2021/05/31 10:01:36;;;;;;;3.50;2.90;;;33.10;30.60;;;;;;4982920;28;20509;-50
2021/05/31 10:06:52;;;;;;;3.80;2.80;;;32.80;29.40;;;;;;4980951;28;20525;-47
2021/05/31 10:09:19;;;;;;;3.13;2.53;;;32.60;29.20;;;;;;4983858;28;20462;-48
2021/05/31 10:11:45;;;;;;;3.93;3.40;;;32.10;29.70;;;;;;4992414;28;20462;-47
2021/05/31 10:14:15;;;;;;;4.70;3.47;;;31.90;30.90;;;;;;4979849;28;20442;-50
2021/05/31 10:16:42;;;;;;;3.30;3.00;;;31.90;30.40;;;;;;4982323;28;20461;-52
2021/05/31 10:19:09;;;;;;;3.17;2.77;;;31.80;30.00;;;;;;4986198;28;20461;-50
2021/05/31 10:21:35;;;;;;;5.13;3.13;;;31.60;30.90;;;;;;4974528;28;21031;-50
2021/05/31 10:24:04;;;;;;;5.67;2.63;;;31.50;30.30;;;;;;4978773;28;20974;-52
2021/05/31 10:26:32;;;;;;;3.00;2.57;;;31.30;30.00;;;;;;4990174;28;20488;-52
2021/05/31 10:28:59;;;;;;;2.80;2.60;;;31.00;30.10;;;;;;4984394;28;20489;-46
2021/05/31 10:31:27;;;;;;;5.80;2.10;;;30.40;30.00;;;;;;4992092;28;20510;-51
2021/05/31 10:33:59;;;;;;;3.00;2.70;;;30.20;30.70;;;;;;4980078;28;20477;-49
2021/05/31 10:36:32;;;;;;;4.00;2.30;;;29.90;31.30;;;;;;4982531;28;20477;-47
2021/05/31 10:39:02;;;;;;;4.37;2.30;;;29.60;30.60;;;;;;4983107;28;20807;-48
2021/05/31 10:41:32;;;;;;;3.30;2.60;;;29.20;31.20;;;;;;4981999;28;20924;-47
2021/05/31 10:44:00;;;;;;;3.80;3.00;;;28.80;32.80;;;;;;4986835;28;20453;-51
2021/05/31 10:46:28;;;;;;;3.53;2.70;;;28.40;33.60;;;;;;4982289;28;20493;-49
2021/05/31 10:48:55;;;;;;;4.60;3.20;;;28.10;33.00;;;;;;4982210;28;20451;-50
2021/05/31 10:51:25;;;;;;;4.27;2.03;;;27.90;32.90;;;;;;4975339;28;20510;-52
2021/05/31 10:53:51;;;;;;;10.10;3.20;;;27.70;34.10;;;;;;4980068;28;20542;-50
2021/05/31 10:56:26;;;;;;;5.47;2.80;;;27.50;34.60;;;;;;4985993;28;20461;-49
2021/05/31 10:58:55;;;;;;;8.60;2.73;;;27.30;33.40;;;;;;4993762;28;20461;-50
2021/05/31 11:01:34;;;;;;;5.37;3.03;;;27.00;33.40;;;;;;4991700;28;20458;-49
2021/05/31 11:04:01;;;;;;;2.80;2.50;;;26.90;34.50;;;;;;4987512;28;20439;-48
2021/05/31 11:06:30;;;;;;;2.80;2.50;;;26.70;35.50;;;;;;4990205;28;20471;-50
2021/05/31 11:09:03;;;;;;;3.90;2.50;;;26.60;35.40;;;;;;4986728;28;20681;-46
2021/05/31 11:11:36;;;;;;;4.23;2.97;;;26.60;35.90;;;;;;4982403;28;20450;-47
2021/05/31 11:14:05;;;;;;;2.83;2.53;;;26.50;34.40;;;;;;4982369;28;20446;-49
2021/05/31 11:16:34;;;;;;;3.57;3.13;;;26.40;36.00;;;;;;4995627;28;20438;-46
2021/05/31 11:19:02;;;;;;;2.97;2.30;;;26.20;35.20;;;;;;4997260;28;20456;-46
2021/05/31 11:21:31;;;;;;;7.63;3.87;;;26.10;36.30;;;;;;4996836;28;20452;-47
2021/05/31 11:24:01;;;;;;;5.27;3.00;;;26.00;36.50;;;;;;4996919;28;20458;-49
2021/05/31 11:26:29;;;;;;;4.20;3.27;;;26.00;35.70;;;;;;4992169;28;20474;-51
2021/05/31 11:28:56;;;;;;;8.20;4.27;;;25.90;37.60;;;;;;4977110;28;20497;-50
2021/05/31 11:31:25;;;;;;;4.30;2.57;;;25.90;36.80;;;;;;4995925;28;20512;-48
2021/05/31 11:33:54;;;;;;;4.07;2.50;;;25.80;34.50;;;;;;4996466;28;20497;-53
2021/05/31 11:36:31;;;;;;;5.63;3.00;;;25.60;36.60;;;;;;4996395;28;20449;-51
2021/05/31 11:39:00;;;;;;;4.07;2.40;;;25.40;37.20;;;;;;4985515;28;20454;-53
2021/05/31 11:41:35;;;;;;;4.63;2.83;;;25.30;36.60;;;;;;4984753;28;20509;-47
2021/05/31 11:44:01;;;;;;;7.47;2.47;;;25.20;36.30;;;;;;4982385;28;20443;-50
2021/05/31 11:46:29;;;;;;;4.37;3.10;;;25.10;37.90;;;;;;4983331;28;20786;-49
2021/05/31 11:49:06;;;;;;;8.90;2.70;;;25.10;37.00;;;;;;4996497;28;20460;-50
2021/05/31 11:51:32;;;;;;;5.30;3.10;;;25.00;39.80;;;;;;4996567;28;20500;-50
2021/05/31 11:53:58;;;;;;;2.63;2.30;;;25.00;38.70;;;;;;4996291;28;20524;-49
2021/05/31 11:56:31;;;;;;;8.50;2.97;;;25.00;38.20;;;;;;4996322;28;20472;-51
2021/05/31 11:58:57;;;;;;;4.10;2.53;;;24.80;39.10;;;;;;4996091;28;20457;-49
2021/05/31 12:01:24;;;;;;;2.90;2.37;;;24.70;40.20;;;;;;4996275;28;20450;-47
2021/05/31 12:03:51;;;;;;;5.40;2.70;;;24.70;39.30;;;;;;4996183;28;20461;-49
2021/05/31 12:06:18;;;;;;;3.03;2.37;;;24.60;40.80;;;;;;4996506;28;20482;-49
2021/05/31 12:08:46;;;;;;;2.70;2.50;;;24.50;40.50;;;;;;4985395;28;20450;-49
2021/05/31 12:11:19;;;;;;;4.90;2.90;;;24.60;40.20;;;;;;4985534;28;20451;-50
2021/05/31 12:13:45;;;;;;;3.90;2.33;;;24.40;38.10;;;;;;4992981;28;20521;-48
2021/05/31 12:16:13;;;;;;;3.70;2.73;;;24.30;40.10;;;;;;4991857;28;20778;-47
2021/05/31 12:18:40;;;;;;;3.33;2.60;;;24.30;40.70;;;;;;4987947;28;20449;-51
2021/05/31 12:21:07;;;;;;;3.03;2.20;;;24.30;39.90;;;;;;4995549;28;20438;-51
2021/05/31 12:23:34;;;;;;;4.37;3.10;;;24.20;37.90;;;;;;4995596;28;20461;-48
2021/05/31 12:26:03;;;;;;;3.50;2.10;;;24.20;39.30;;;;;;4995601;28;20462;-50
2021/05/31 12:28:31;;;;;;;3.10;2.50;;;24.20;38.80;;;;;;4995689;28;20460;-50
2021/05/31 12:30:57;;;;;;;2.73;2.43;;;24.10;40.50;;;;;;4988304;28;20526;-46
2021/05/31 12:33:23;;;;;;;2.73;2.20;;;24.10;38.40;;;;;;4988539;28;20446;-50
2021/05/31 12:35:50;;;;;;;3.40;2.50;;;24.10;36.80;;;;;;4980846;28;20473;-48
2021/05/31 12:38:19;;;;;;;3.10;2.20;;;24.10;36.90;;;;;;4979782;28;20430;-52
2021/05/31 12:40:48;;;;;;;4.57;2.60;;;24.20;36.80;;;;;;4983708;28;20972;-52
2021/05/31 12:43:14;;;;;;;5.00;2.33;;;24.20;37.30;;;;;;4980216;28;20453;-49
2021/05/31 12:45:42;;;;;;;5.50;2.50;;;24.20;38.50;;;;;;4986520;28;21210;-50
2021/05/31 12:48:16;;;;;;;5.00;2.23;;;24.20;38.10;;;;;;4978171;28;20492;-52
2021/05/31 12:50:42;;;;;;;2.50;2.00;;;24.20;36.40;;;;;;4987909;28;20790;-54
2021/05/31 12:53:11;;;;;;;2.20;2.00;;;24.20;36.60;;;;;;4985813;28;20453;-50
2021/05/31 12:55:40;;;;;;;4.03;2.50;;;24.10;37.20;;;;;;4988980;28;21003;-48
2021/05/31 12:58:14;;;;;;;4.00;2.10;;;24.10;37.00;;;;;;4983237;28;20481;-51
2021/05/31 13:00:41;;;;;;;2.40;2.20;;;24.20;37.10;;;;;;4983441;28;20450;-49
2021/05/31 13:03:07;;;;;;;3.57;2.67;;;24.20;36.10;;;;;;4985474;28;20446;-51
2021/05/31 13:05:36;;;;;;;1.80;1.70;;;24.30;37.40;;;;;;4983752;28;20450;-50
2021/05/31 13:08:05;;;;;;;8.77;3.23;;;24.30;36.00;;;;;;4980733;28;20514;-47
2021/05/31 13:10:33;;;;;;;2.43;2.10;;;24.40;36.90;;;;;;4981947;28;20469;-51
2021/05/31 13:13:03;;;;;;;2.63;2.43;;;24.50;36.30;;;;;;4985018;28;20442;-50
2021/05/31 13:15:41;;;;;;;3.43;2.50;;;24.50;36.90;;;;;;4981995;28;20451;-48
2021/05/31 13:18:11;;;;;;;5.37;2.50;;;24.50;36.30;;;;;;4982598;28;20902;-51
2021/05/31 13:20:39;;;;;;;3.33;2.17;;;24.40;35.90;;;;;;4980440;28;20446;-52
2021/05/31 13:23:05;;;;;;;5.23;2.43;;;24.30;36.80;;;;;;4987762;28;20536;-52
2021/05/31 13:25:32;;;;;;;13.53;2.80;;;24.20;37.50;;;;;;4984340;28;20468;-52
2021/05/31 13:28:25;;;;;;;3.67;2.73;;;24.10;38.40;;;;;;4981043;28;20478;-54
2021/05/31 13:30:59;;;;;;;3.63;2.90;;;24.00;39.20;;;;;;4944683;28;20582;-54
2021/05/31 13:33:26;;;;;;;3.77;2.90;;;24.10;39.80;;;;;;4968506;28;20453;-50
2021/05/31 13:35:53;;;;;;;2.50;2.13;;;24.20;39.60;;;;;;4964297;28;20461;-52
2021/05/31 13:38:20;;;;;;;2.87;2.37;;;24.20;40.10;;;;;;4967802;28;20794;-51
2021/05/31 13:40:49;;;;;;;3.90;2.90;;;24.20;40.20;;;;;;4972424;28;20454;-51
2021/05/31 13:43:17;;;;;;;4.37;3.50;;;24.30;39.90;;;;;;4961275;28;20460;-49
2021/05/31 13:45:47;;;;;;;2.80;2.00;;;24.40;39.00;;;;;;4965046;28;20539;-49
2021/05/31 13:48:14;;;;;;;4.73;2.60;;;24.50;39.80;;;;;;4960122;28;20551;-50
2021/05/31 13:50:43;;;;;;;4.83;2.90;;;24.60;39.30;;;;;;4955657;28;20454;-46
2021/05/31 13:53:09;;;;;;;4.90;2.83;;;24.70;40.90;;;;;;4961859;28;20465;-49
2021/05/31 13:55:35;;;;;;;5.97;2.63;;;24.80;40.50;;;;;;4965057;28;20450;-48
2021/05/31 13:58:02;;;;;;;3.47;2.30;;;24.90;40.30;;;;;;4966702;28;20459;-53
2021/05/31 14:00:29;;;;;;;3.57;2.47;;;24.90;40.80;;;;;;4961635;28;20444;-48
2021/05/31 14:02:58;;;;;;;3.47;2.83;;;24.90;40.10;;;;;;4959481;28;20454;-50
2021/05/31 14:05:25;;;;;;;2.50;2.30;;;25.00;40.40;;;;;;4960368;28;20442;-46
2021/05/31 14:07:51;;;;;;;10.70;3.60;;;25.00;38.10;;;;;;4966274;28;20487;-50
2021/05/31 14:10:18;;;;;;;6.00;2.60;;;24.80;38.50;;;;;;4956080;28;20463;-48
2021/05/31 14:12:44;;;;;;;4.20;3.73;;;24.90;38.50;;;;;;4966974;28;20473;-51
2021/05/31 14:15:11;;;;;;;2.77;2.13;;;24.80;39.10;;;;;;4959394;28;20456;-49
2021/05/31 14:17:41;;;;;;;3.80;2.53;;;24.70;36.60;;;;;;4961838;28;20940;-47
2021/05/31 14:20:10;;;;;;;4.40;2.33;;;24.70;37.30;;;;;;4963609;28;20463;-51
2021/05/31 14:22:37;;;;;;;6.47;2.83;;;24.70;37.10;;;;;;4968292;28;20458;-50
2021/05/31 14:25:05;;;;;;;2.80;2.13;;;24.80;43.80;;;;;;4956897;28;20452;-46
2021/05/31 14:27:32;;;;;;;4.97;2.00;;;24.90;35.90;;;;;;4956960;28;21015;-53
2021/05/31 14:29:59;;;;;;;2.60;2.00;;;24.90;36.20;;;;;;4964577;28;20476;-45
2021/05/31 14:32:25;;;;;;;3.87;2.13;;;24.80;36.60;;;;;;4969739;28;20822;-49
2021/05/31 14:34:52;;;;;;;9.43;2.10;;;24.90;36.50;;;;;;4964867;28;20779;-47
2021/05/31 14:37:20;;;;;;;2.70;1.90;;;24.90;35.40;;;;;;4965296;28;20474;-47
2021/05/31 14:39:47;;;;;;;3.00;2.50;;;24.90;35.90;;;;;;4964777;28;20538;-47
2021/05/31 14:42:13;;;;;;;2.40;2.03;;;24.90;36.10;;;;;;4965036;28;20455;-46
2021/05/31 14:44:40;;;;;;;5.17;3.10;;;24.90;37.10;;;;;;4962763;28;20472;-47
2021/05/31 14:47:06;;;;;;;2.70;2.50;;;24.90;36.20;;;;;;4963166;28;20589;-51
2021/05/31 14:49:32;;;;;;;2.63;2.00;;;25.00;36.40;;;;;;4973843;28;20513;-48
2021/05/31 14:51:59;;;;;;;2.57;2.07;;;25.00;35.50;;;;;;4969528;28;20443;-49
2021/05/31 14:54:27;;;;;;;3.77;2.57;;;24.90;34.90;;;;;;4972104;28;21334;-47
2021/05/31 14:56:55;;;;;;;9.00;2.90;;;24.90;35.20;;;;;;4963503;28;20460;-47
2021/05/31 14:59:21;;;;;;;5.50;1.90;;;24.90;36.20;;;;;;4968212;28;20590;-47
2021/05/31 15:01:47;;;;;;;3.13;2.30;;;24.80;36.50;;;;;;4969399;28;20471;-49
2021/05/31 15:04:13;;;;;;;3.70;2.33;;;24.80;36.30;;;;;;4966337;28;20443;-50
2021/05/31 15:06:40;;;;;;;5.80;2.00;;;24.70;37.20;;;;;;4966554;28;20483;-51
2021/05/31 15:09:07;;;;;;;5.40;2.40;;;24.70;37.00;;;;;;4963700;28;20455;-50
2021/05/31 15:11:34;;;;;;;2.53;2.27;;;24.70;37.20;;;;;;4967792;28;20809;-49
2021/05/31 15:14:01;;;;;;;4.80;2.70;;;24.70;36.80;;;;;;4964998;28;20444;-49
2021/05/31 15:16:27;;;;;;;8.20;3.10;;;24.70;37.20;;;;;;4967355;28;20486;-51
2021/05/31 15:18:54;;;;;;;4.30;2.70;;;24.70;37.40;;;;;;4966642;28;20494;-53
2021/05/31 15:21:20;;;;;;;3.73;2.73;;;24.70;37.60;;;;;;4963025;28;20535;-47
2021/05/31 15:23:49;;;;;;;2.43;2.20;;;24.60;37.60;;;;;;4965413;28;20458;-46
2021/05/31 15:26:15;;;;;;;2.40;2.20;;;24.60;37.00;;;;;;4966821;28;20531;-48
2021/05/31 15:28:42;;;;;;;2.13;1.80;;;24.70;37.00;;;;;;4971062;28;20482;-47
2021/05/31 15:31:11;;;;;;;2.33;2.13;;;24.70;38.00;;;;;;4974850;28;20467;-46
2021/05/31 15:33:38;;;;;;;3.87;2.80;;;24.70;37.30;;;;;;4971935;28;20806;-49
2021/05/31 15:36:04;;;;;;;3.83;3.07;;;24.70;38.00;;;;;;4975117;28;20455;-48
2021/05/31 15:38:30;;;;;;;3.00;2.53;;;24.70;37.70;;;;;;4959620;28;20455;-52
2021/05/31 15:40:57;;;;;;;4.50;2.70;;;24.70;38.30;;;;;;4968970;28;20469;-49
2021/05/31 15:43:23;;;;;;;3.10;2.30;;;24.60;38.20;;;;;;4971100;28;20769;-50
2021/05/31 15:45:54;;;;;;;3.50;2.53;;;24.60;38.30;;;;;;4963957;28;20870;-47
2021/05/31 15:48:22;;;;;;;3.40;2.87;;;24.50;38.20;;;;;;4965737;28;20809;-49
2021/05/31 15:50:49;;;;;;;7.13;2.90;;;24.30;38.50;;;;;;4965938;28;20472;-47
2021/05/31 15:53:16;;;;;;;4.37;3.07;;;24.30;38.70;;;;;;4963385;28;20459;-49
2021/05/31 15:55:43;;;;;;;3.50;2.90;;;24.20;38.70;;;;;;4974001;28;20838;-45
2021/05/31 15:58:12;;;;;;;3.37;2.73;;;24.20;38.70;;;;;;4973042;28;20446;-45
2021/05/31 16:00:40;;;;;;;2.83;2.60;;;24.10;38.70;;;;;;4959688;28;20819;-46
2021/05/31 16:03:07;;;;;;;4.47;2.53;;;24.10;38.40;;;;;;4971334;28;20482;-46
2021/05/31 16:05:34;;;;;;;2.93;2.73;;;24.10;38.80;;;;;;4964848;28;20790;-46
2021/05/31 16:08:03;;;;;;;4.23;2.07;;;24.10;38.80;;;;;;4965050;28;20487;-51
2021/05/31 16:10:32;;;;;;;5.70;2.97;;;24.10;38.10;;;;;;4966066;28;20483;-47
2021/05/31 16:13:09;;;;;;;7.93;3.10;;;24.10;39.00;;;;;;4971281;28;20486;-48
2021/05/31 16:15:35;;;;;;;3.70;2.47;;;24.10;39.30;;;;;;4965544;28;20451;-49
2021/05/31 16:18:01;;;;;;;3.80;2.10;;;24.10;39.30;;;;;;4967119;28;20540;-47
2021/05/31 16:20:29;;;;;;;3.80;2.13;;;23.90;39.20;;;;;;4966708;28;20514;-49
2021/05/31 16:23:04;;;;;;;2.40;2.20;;;23.70;39.00;;;;;;4964918;28;20789;-51
2021/05/31 16:25:30;;;;;;;3.60;2.50;;;23.70;39.10;;;;;;4964651;28;20486;-47